sensor_id;sensor_type;location;lat;lon;timestamp;P1;durP1;ratioP1;P2;durP2;ratioP2
57726;SDS011;43568;43.180;-0.028;2022-10-16T00:00:30;2.20;;;2.20;;
57726;SDS011;43568;43.180;-0.028;2022-10-16T00:02:56;2.10;;;2.10;;
57726;SDS011;43568;43.180;-0.028;2022-10-16T00:05:22;2.00;;;2.00;;
57726;SDS011;43568;43.180;-0.028;2022-10-16T00:07:48;2.00;;;2.00;;
57726;SDS011;43568;43.180;-0.028;2022-10-16T00:10:14;2.20;;;2.20;;
57726;SDS011;43568;43.180;-0.028;2022-10-16T00:12:40;2.13;;;2.13;;
57726;SDS011;43568;43.180;-0.028;2022-10-16T00:15:07;2.10;;;2.10;;
57726;SDS011;43568;43.180;-0.028;2022-10-16T00:17:33;2.20;;;2.17;;
57726;SDS011;43568;43.180;-0.028;2022-10-16T00:19:59;2.45;;;2.35;;
57726;SDS011;43568;43.180;-0.028;2022-10-16T00:22:25;2.00;;;2.00;;
57726;SDS011;43568;43.180;-0.028;2022-10-16T00:24:51;2.13;;;2.10;;
57726;SDS011;43568;43.180;-0.028;2022-10-16T00:27:17;2.38;;;2.28;;
57726;SDS011;43568;43.180;-0.028;2022-10-16T00:29:43;2.40;;;2.30;;
57726;SDS011;43568;43.180;-0.028;2022-10-16T00:32:09;2.08;;;2.08;;
57726;SDS011;43568;43.180;-0.028;2022-10-16T00:34:35;2.35;;;2.25;;
57726;SDS011;43568;43.180;-0.028;2022-10-16T00:37:02;2.28;;;2.20;;
57726;SDS011;43568;43.180;-0.028;2022-10-16T00:39:28;2.20;;;2.10;;
57726;SDS011;43568;43.180;-0.028;2022-10-16T00:41:54;2.85;;;2.75;;
57726;SDS011;43568;43.180;-0.028;2022-10-16T00:47:04;2.20;;;2.10;;
57726;SDS011;43568;43.180;-0.028;2022-10-16T00:49:30;2.20;;;2.10;;
57726;SDS011;43568;43.180;-0.028;2022-10-16T00:51:57;2.25;;;2.20;;
57726;SDS011;43568;43.180;-0.028;2022-10-16T00:54:24;2.33;;;2.22;;
57726;SDS011;43568;43.180;-0.028;2022-10-16T00:56:51;2.05;;;2.05;;
57726;SDS011;43568;43.180;-0.028;2022-10-16T00:59:28;2.83;;;2.63;;
57726;SDS011;43568;43.180;-0.028;2022-10-16T01:01:55;2.20;;;2.20;;
57726;SDS011;43568;43.180;-0.028;2022-10-16T01:04:21;2.10;;;2.10;;
57726;SDS011;43568;43.180;-0.028;2022-10-16T01:09:37;2.10;;;2.10;;
57726;SDS011;43568;43.180;-0.028;2022-10-16T01:12:12;2.10;;;2.10;;
57726;SDS011;43568;43.180;-0.028;2022-10-16T01:17:11;2.58;;;2.47;;
57726;SDS011;43568;43.180;-0.028;2022-10-16T01:22:04;2.20;;;2.20;;
57726;SDS011;43568;43.180;-0.028;2022-10-16T01:24:33;2.20;;;2.20;;
57726;SDS011;43568;43.180;-0.028;2022-10-16T01:27:11;2.58;;;2.47;;
57726;SDS011;43568;43.180;-0.028;2022-10-16T01:32:27;2.15;;;2.15;;
57726;SDS011;43568;43.180;-0.028;2022-10-16T01:35:05;2.47;;;2.38;;
57726;SDS011;43568;43.180;-0.028;2022-10-16T01:37:54;2.50;;;2.40;;
57726;SDS011;43568;43.180;-0.028;2022-10-16T01:40:19;2.22;;;2.22;;
57726;SDS011;43568;43.180;-0.028;2022-10-16T01:42:47;2.30;;;2.30;;
57726;SDS011;43568;43.180;-0.028;2022-10-16T01:45:14;2.70;;;2.60;;
57726;SDS011;43568;43.180;-0.028;2022-10-16T01:47:43;2.75;;;2.65;;
57726;SDS011;43568;43.180;-0.028;2022-10-16T01:50:09;2.33;;;2.30;;
57726;SDS011;43568;43.180;-0.028;2022-10-16T01:52:36;2.40;;;2.30;;
57726;SDS011;43568;43.180;-0.028;2022-10-16T01:55:03;2.40;;;2.30;;
57726;SDS011;43568;43.180;-0.028;2022-10-16T01:57:30;2.30;;;2.30;;
57726;SDS011;43568;43.180;-0.028;2022-10-16T01:59:58;2.20;;;2.20;;
57726;SDS011;43568;43.180;-0.028;2022-10-16T02:02:27;2.67;;;2.58;;
57726;SDS011;43568;43.180;-0.028;2022-10-16T02:05:05;2.63;;;2.53;;
57726;SDS011;43568;43.180;-0.028;2022-10-16T02:07:34;2.38;;;2.28;;
57726;SDS011;43568;43.180;-0.028;2022-10-16T02:10:00;2.45;;;2.35;;
57726;SDS011;43568;43.180;-0.028;2022-10-16T02:12:27;2.35;;;2.28;;
57726;SDS011;43568;43.180;-0.028;2022-10-16T02:17:20;2.70;;;2.60;;
57726;SDS011;43568;43.180;-0.028;2022-10-16T02:19:47;2.17;;;2.17;;
57726;SDS011;43568;43.180;-0.028;2022-10-16T02:24:59;2.92;;;2.83;;
57726;SDS011;43568;43.180;-0.028;2022-10-16T02:30:11;2.60;;;2.50;;
57726;SDS011;43568;43.180;-0.028;2022-10-16T02:32:39;2.20;;;2.20;;
57726;SDS011;43568;43.180;-0.028;2022-10-16T02:35:06;2.55;;;2.45;;
57726;SDS011;43568;43.180;-0.028;2022-10-16T02:37:33;2.55;;;2.45;;
57726;SDS011;43568;43.180;-0.028;2022-10-16T02:39:59;2.45;;;2.35;;
57726;SDS011;43568;43.180;-0.028;2022-10-16T02:42:32;2.20;;;2.20;;
57726;SDS011;43568;43.180;-0.028;2022-10-16T02:44:59;2.45;;;2.35;;
57726;SDS011;43568;43.180;-0.028;2022-10-16T02:47:25;2.47;;;2.38;;
57726;SDS011;43568;43.180;-0.028;2022-10-16T02:49:51;2.20;;;2.20;;
57726;SDS011;43568;43.180;-0.028;2022-10-16T02:52:17;2.30;;;2.30;;
57726;SDS011;43568;43.180;-0.028;2022-10-16T02:54:43;2.10;;;2.10;;
57726;SDS011;43568;43.180;-0.028;2022-10-16T02:57:09;2.15;;;2.15;;
57726;SDS011;43568;43.180;-0.028;2022-10-16T02:59:35;2.05;;;2.05;;
57726;SDS011;43568;43.180;-0.028;2022-10-16T03:02:01;2.70;;;2.60;;
57726;SDS011;43568;43.180;-0.028;2022-10-16T03:04:27;2.10;;;2.10;;
57726;SDS011;43568;43.180;-0.028;2022-10-16T03:06:53;2.10;;;2.10;;
57726;SDS011;43568;43.180;-0.028;2022-10-16T03:09:19;2.22;;;2.22;;
57726;SDS011;43568;43.180;-0.028;2022-10-16T03:11:45;2.00;;;2.00;;
57726;SDS011;43568;43.180;-0.028;2022-10-16T03:14:11;2.20;;;2.20;;
57726;SDS011;43568;43.180;-0.028;2022-10-16T03:16:37;2.20;;;2.10;;
57726;SDS011;43568;43.180;-0.028;2022-10-16T03:19:03;2.50;;;2.40;;
57726;SDS011;43568;43.180;-0.028;2022-10-16T03:21:29;2.10;;;2.10;;
57726;SDS011;43568;43.180;-0.028;2022-10-16T03:23:55;2.08;;;2.08;;
57726;SDS011;43568;43.180;-0.028;2022-10-16T03:26:21;2.63;;;2.53;;
57726;SDS011;43568;43.180;-0.028;2022-10-16T03:28:47;2.42;;;2.33;;
57726;SDS011;43568;43.180;-0.028;2022-10-16T03:31:13;2.03;;;2.03;;
57726;SDS011;43568;43.180;-0.028;2022-10-16T03:33:39;2.00;;;2.00;;
57726;SDS011;43568;43.180;-0.028;2022-10-16T03:36:05;2.17;;;2.17;;
57726;SDS011;43568;43.180;-0.028;2022-10-16T03:38:31;2.33;;;2.22;;
57726;SDS011;43568;43.180;-0.028;2022-10-16T03:40:58;2.35;;;2.30;;
57726;SDS011;43568;43.180;-0.028;2022-10-16T03:43:24;2.15;;;2.15;;
57726;SDS011;43568;43.180;-0.028;2022-10-16T03:45:50;2.10;;;2.10;;
57726;SDS011;43568;43.180;-0.028;2022-10-16T03:48:17;2.30;;;2.20;;
57726;SDS011;43568;43.180;-0.028;2022-10-16T03:50:43;1.90;;;1.90;;
57726;SDS011;43568;43.180;-0.028;2022-10-16T03:53:09;2.10;;;2.08;;
57726;SDS011;43568;43.180;-0.028;2022-10-16T03:55:35;2.10;;;2.00;;
57726;SDS011;43568;43.180;-0.028;2022-10-16T03:58:01;2.25;;;2.13;;
57726;SDS011;43568;43.180;-0.028;2022-10-16T04:00:27;2.00;;;2.00;;
57726;SDS011;43568;43.180;-0.028;2022-10-16T04:02:54;1.98;;;1.98;;
57726;SDS011;43568;43.180;-0.028;2022-10-16T04:05:20;2.00;;;2.00;;
57726;SDS011;43568;43.180;-0.028;2022-10-16T04:07:46;1.90;;;1.90;;
57726;SDS011;43568;43.180;-0.028;2022-10-16T04:10:12;2.10;;;2.10;;
57726;SDS011;43568;43.180;-0.028;2022-10-16T04:12:38;2.80;;;2.60;;
57726;SDS011;43568;43.180;-0.028;2022-10-16T04:15:04;1.98;;;1.98;;
57726;SDS011;43568;43.180;-0.028;2022-10-16T04:17:30;2.35;;;2.25;;
57726;SDS011;43568;43.180;-0.028;2022-10-16T04:19:56;2.00;;;2.00;;
57726;SDS011;43568;43.180;-0.028;2022-10-16T04:22:22;2.13;;;2.13;;
57726;SDS011;43568;43.180;-0.028;2022-10-16T04:24:48;2.60;;;2.50;;
57726;SDS011;43568;43.180;-0.028;2022-10-16T04:27:14;2.22;;;2.20;;
57726;SDS011;43568;43.180;-0.028;2022-10-16T04:29:40;2.10;;;2.10;;
57726;SDS011;43568;43.180;-0.028;2022-10-16T04:32:07;2.13;;;2.13;;
57726;SDS011;43568;43.180;-0.028;2022-10-16T04:34:33;2.00;;;2.00;;
57726;SDS011;43568;43.180;-0.028;2022-10-16T04:36:59;2.10;;;2.10;;
57726;SDS011;43568;43.180;-0.028;2022-10-16T04:39:25;2.45;;;2.35;;
57726;SDS011;43568;43.180;-0.028;2022-10-16T04:41:51;2.15;;;2.13;;
57726;SDS011;43568;43.180;-0.028;2022-10-16T04:44:17;2.70;;;2.60;;
57726;SDS011;43568;43.180;-0.028;2022-10-16T04:46:43;2.00;;;2.00;;
57726;SDS011;43568;43.180;-0.028;2022-10-16T04:49:09;2.10;;;2.10;;
57726;SDS011;43568;43.180;-0.028;2022-10-16T04:51:36;2.10;;;2.10;;
57726;SDS011;43568;43.180;-0.028;2022-10-16T04:54:02;2.30;;;2.20;;
57726;SDS011;43568;43.180;-0.028;2022-10-16T04:56:28;3.08;;;2.97;;
57726;SDS011;43568;43.180;-0.028;2022-10-16T04:58:54;2.00;;;2.00;;
57726;SDS011;43568;43.180;-0.028;2022-10-16T05:01:20;2.20;;;2.20;;
57726;SDS011;43568;43.180;-0.028;2022-10-16T05:03:46;2.20;;;2.20;;
57726;SDS011;43568;43.180;-0.028;2022-10-16T05:06:12;2.42;;;2.33;;
57726;SDS011;43568;43.180;-0.028;2022-10-16T05:08:38;2.55;;;2.40;;
57726;SDS011;43568;43.180;-0.028;2022-10-16T05:11:04;2.13;;;2.13;;
57726;SDS011;43568;43.180;-0.028;2022-10-16T05:13:30;2.10;;;2.10;;
57726;SDS011;43568;43.180;-0.028;2022-10-16T05:15:56;2.33;;;2.22;;
57726;SDS011;43568;43.180;-0.028;2022-10-16T05:18:22;2.00;;;2.00;;
57726;SDS011;43568;43.180;-0.028;2022-10-16T05:20:48;2.58;;;2.47;;
57726;SDS011;43568;43.180;-0.028;2022-10-16T05:23:14;2.20;;;2.20;;
57726;SDS011;43568;43.180;-0.028;2022-10-16T05:25:40;2.00;;;2.00;;
57726;SDS011;43568;43.180;-0.028;2022-10-16T05:28:06;2.00;;;2.00;;
57726;SDS011;43568;43.180;-0.028;2022-10-16T05:30:32;2.38;;;2.28;;
57726;SDS011;43568;43.180;-0.028;2022-10-16T05:32:58;1.90;;;1.90;;
57726;SDS011;43568;43.180;-0.028;2022-10-16T05:35:24;1.92;;;1.92;;
57726;SDS011;43568;43.180;-0.028;2022-10-16T05:37:50;2.25;;;2.15;;
57726;SDS011;43568;43.180;-0.028;2022-10-16T05:40:16;2.53;;;2.42;;
57726;SDS011;43568;43.180;-0.028;2022-10-16T05:42:42;2.30;;;2.20;;
57726;SDS011;43568;43.180;-0.028;2022-10-16T05:45:09;2.55;;;2.40;;
57726;SDS011;43568;43.180;-0.028;2022-10-16T05:47:36;2.28;;;2.28;;
57726;SDS011;43568;43.180;-0.028;2022-10-16T05:50:03;2.85;;;2.65;;
57726;SDS011;43568;43.180;-0.028;2022-10-16T05:52:29;2.10;;;2.10;;
57726;SDS011;43568;43.180;-0.028;2022-10-16T05:54:55;2.42;;;2.33;;
57726;SDS011;43568;43.180;-0.028;2022-10-16T05:57:21;2.28;;;2.22;;
57726;SDS011;43568;43.180;-0.028;2022-10-16T05:59:47;2.35;;;2.25;;
57726;SDS011;43568;43.180;-0.028;2022-10-16T06:02:13;2.08;;;2.08;;
57726;SDS011;43568;43.180;-0.028;2022-10-16T06:04:39;2.22;;;2.15;;
57726;SDS011;43568;43.180;-0.028;2022-10-16T06:07:06;2.10;;;2.10;;
57726;SDS011;43568;43.180;-0.028;2022-10-16T06:09:32;2.20;;;2.10;;
57726;SDS011;43568;43.180;-0.028;2022-10-16T06:11:58;2.40;;;2.30;;
57726;SDS011;43568;43.180;-0.028;2022-10-16T06:14:24;2.40;;;2.30;;
57726;SDS011;43568;43.180;-0.028;2022-10-16T06:16:50;2.10;;;2.10;;
57726;SDS011;43568;43.180;-0.028;2022-10-16T06:19:16;2.03;;;2.03;;
57726;SDS011;43568;43.180;-0.028;2022-10-16T06:21:43;2.30;;;2.30;;
57726;SDS011;43568;43.180;-0.028;2022-10-16T06:24:09;2.40;;;2.30;;
57726;SDS011;43568;43.180;-0.028;2022-10-16T06:26:35;2.17;;;2.17;;
57726;SDS011;43568;43.180;-0.028;2022-10-16T06:29:03;2.20;;;2.20;;
57726;SDS011;43568;43.180;-0.028;2022-10-16T06:31:29;3.33;;;2.75;;
57726;SDS011;43568;43.180;-0.028;2022-10-16T06:33:58;2.83;;;2.72;;
57726;SDS011;43568;43.180;-0.028;2022-10-16T06:36:24;2.53;;;2.42;;
57726;SDS011;43568;43.180;-0.028;2022-10-16T06:38:50;2.10;;;2.10;;
57726;SDS011;43568;43.180;-0.028;2022-10-16T06:41:18;1.90;;;1.90;;
57726;SDS011;43568;43.180;-0.028;2022-10-16T06:43:44;2.28;;;2.17;;
57726;SDS011;43568;43.180;-0.028;2022-10-16T06:46:11;1.90;;;1.90;;
57726;SDS011;43568;43.180;-0.028;2022-10-16T06:48:38;2.20;;;2.20;;
57726;SDS011;43568;43.180;-0.028;2022-10-16T06:51:11;2.10;;;2.00;;
57726;SDS011;43568;43.180;-0.028;2022-10-16T06:53:39;2.10;;;2.10;;
57726;SDS011;43568;43.180;-0.028;2022-10-16T06:56:19;2.40;;;2.30;;
57726;SDS011;43568;43.180;-0.028;2022-10-16T06:58:45;2.10;;;2.10;;
57726;SDS011;43568;43.180;-0.028;2022-10-16T07:01:12;2.13;;;2.13;;
57726;SDS011;43568;43.180;-0.028;2022-10-16T07:03:39;2.17;;;2.10;;
57726;SDS011;43568;43.180;-0.028;2022-10-16T07:06:06;2.28;;;2.17;;
57726;SDS011;43568;43.180;-0.028;2022-10-16T07:08:33;2.13;;;2.10;;
57726;SDS011;43568;43.180;-0.028;2022-10-16T07:10:59;2.45;;;2.35;;
57726;SDS011;43568;43.180;-0.028;2022-10-16T07:13:25;2.00;;;2.00;;
57726;SDS011;43568;43.180;-0.028;2022-10-16T07:15:51;2.78;;;2.58;;
57726;SDS011;43568;43.180;-0.028;2022-10-16T07:18:17;1.90;;;1.90;;
57726;SDS011;43568;43.180;-0.028;2022-10-16T07:20:44;1.95;;;1.95;;
57726;SDS011;43568;43.180;-0.028;2022-10-16T07:23:10;2.65;;;2.45;;
57726;SDS011;43568;43.180;-0.028;2022-10-16T07:25:36;1.80;;;1.80;;
57726;SDS011;43568;43.180;-0.028;2022-10-16T07:28:02;1.95;;;1.95;;
57726;SDS011;43568;43.180;-0.028;2022-10-16T07:30:28;2.75;;;2.65;;
57726;SDS011;43568;43.180;-0.028;2022-10-16T07:32:54;2.00;;;2.00;;
57726;SDS011;43568;43.180;-0.028;2022-10-16T07:35:20;1.80;;;1.80;;
57726;SDS011;43568;43.180;-0.028;2022-10-16T07:37:46;1.70;;;1.70;;
57726;SDS011;43568;43.180;-0.028;2022-10-16T07:40:12;1.80;;;1.80;;
57726;SDS011;43568;43.180;-0.028;2022-10-16T07:42:38;1.80;;;1.80;;
57726;SDS011;43568;43.180;-0.028;2022-10-16T07:45:05;1.95;;;1.95;;
57726;SDS011;43568;43.180;-0.028;2022-10-16T07:47:31;1.90;;;1.90;;
57726;SDS011;43568;43.180;-0.028;2022-10-16T07:49:57;1.60;;;1.60;;
57726;SDS011;43568;43.180;-0.028;2022-10-16T07:52:23;2.20;;;2.10;;
57726;SDS011;43568;43.180;-0.028;2022-10-16T07:54:49;1.88;;;1.88;;
57726;SDS011;43568;43.180;-0.028;2022-10-16T07:57:15;1.83;;;1.83;;
57726;SDS011;43568;43.180;-0.028;2022-10-16T07:59:44;1.90;;;1.90;;
57726;SDS011;43568;43.180;-0.028;2022-10-16T08:02:11;1.80;;;1.80;;
57726;SDS011;43568;43.180;-0.028;2022-10-16T08:04:37;1.80;;;1.80;;
57726;SDS011;43568;43.180;-0.028;2022-10-16T08:07:03;1.80;;;1.80;;
57726;SDS011;43568;43.180;-0.028;2022-10-16T08:09:29;1.80;;;1.80;;
57726;SDS011;43568;43.180;-0.028;2022-10-16T08:11:55;1.80;;;1.80;;
57726;SDS011;43568;43.180;-0.028;2022-10-16T08:14:21;2.55;;;2.35;;
57726;SDS011;43568;43.180;-0.028;2022-10-16T08:16:47;1.80;;;1.80;;
57726;SDS011;43568;43.180;-0.028;2022-10-16T08:19:13;1.80;;;1.80;;
57726;SDS011;43568;43.180;-0.028;2022-10-16T08:21:40;1.90;;;1.90;;
57726;SDS011;43568;43.180;-0.028;2022-10-16T08:24:06;1.70;;;1.70;;
57726;SDS011;43568;43.180;-0.028;2022-10-16T08:26:32;1.70;;;1.70;;
57726;SDS011;43568;43.180;-0.028;2022-10-16T08:28:58;1.90;;;1.83;;
57726;SDS011;43568;43.180;-0.028;2022-10-16T08:31:24;1.67;;;1.67;;
57726;SDS011;43568;43.180;-0.028;2022-10-16T08:33:52;1.80;;;1.80;;
57726;SDS011;43568;43.180;-0.028;2022-10-16T08:36:18;1.60;;;1.60;;
57726;SDS011;43568;43.180;-0.028;2022-10-16T08:38:46;1.75;;;1.75;;
57726;SDS011;43568;43.180;-0.028;2022-10-16T08:44:01;1.70;;;1.70;;
57726;SDS011;43568;43.180;-0.028;2022-10-16T08:46:31;1.70;;;1.70;;
57726;SDS011;43568;43.180;-0.028;2022-10-16T08:49:02;1.50;;;1.50;;
57726;SDS011;43568;43.180;-0.028;2022-10-16T08:51:32;1.50;;;1.50;;
57726;SDS011;43568;43.180;-0.028;2022-10-16T08:53:59;1.60;;;1.60;;
57726;SDS011;43568;43.180;-0.028;2022-10-16T08:56:33;1.58;;;1.58;;
57726;SDS011;43568;43.180;-0.028;2022-10-16T08:58:59;1.55;;;1.55;;
57726;SDS011;43568;43.180;-0.028;2022-10-16T09:01:32;2.03;;;1.92;;
57726;SDS011;43568;43.180;-0.028;2022-10-16T09:06:54;1.77;;;1.77;;
57726;SDS011;43568;43.180;-0.028;2022-10-16T09:22:33;1.42;;;1.42;;
57726;SDS011;43568;43.180;-0.028;2022-10-16T09:24:59;1.50;;;1.50;;
57726;SDS011;43568;43.180;-0.028;2022-10-16T09:27:26;1.50;;;1.50;;
57726;SDS011;43568;43.180;-0.028;2022-10-16T09:29:53;1.40;;;1.40;;
57726;SDS011;43568;43.180;-0.028;2022-10-16T09:32:19;1.40;;;1.40;;
57726;SDS011;43568;43.180;-0.028;2022-10-16T09:34:47;1.35;;;1.35;;
57726;SDS011;43568;43.180;-0.028;2022-10-16T09:37:14;1.40;;;1.40;;
57726;SDS011;43568;43.180;-0.028;2022-10-16T09:39:45;1.50;;;1.50;;
57726;SDS011;43568;43.180;-0.028;2022-10-16T09:42:22;1.60;;;1.50;;
57726;SDS011;43568;43.180;-0.028;2022-10-16T09:44:49;1.40;;;1.40;;
57726;SDS011;43568;43.180;-0.028;2022-10-16T09:47:17;1.30;;;1.30;;
57726;SDS011;43568;43.180;-0.028;2022-10-16T09:49:55;1.40;;;1.30;;
57726;SDS011;43568;43.180;-0.028;2022-10-16T09:52:22;1.30;;;1.30;;
57726;SDS011;43568;43.180;-0.028;2022-10-16T09:55:12;1.30;;;1.30;;
57726;SDS011;43568;43.180;-0.028;2022-10-16T09:57:34;1.23;;;1.23;;
57726;SDS011;43568;43.180;-0.028;2022-10-16T10:00:04;1.17;;;1.17;;
57726;SDS011;43568;43.180;-0.028;2022-10-16T10:02:34;1.30;;;1.30;;
57726;SDS011;43568;43.180;-0.028;2022-10-16T10:05:00;1.70;;;1.60;;
57726;SDS011;43568;43.180;-0.028;2022-10-16T10:07:30;1.20;;;1.20;;
57726;SDS011;43568;43.180;-0.028;2022-10-16T10:10:01;1.35;;;1.35;;
57726;SDS011;43568;43.180;-0.028;2022-10-16T10:12:28;1.40;;;1.40;;
57726;SDS011;43568;43.180;-0.028;2022-10-16T10:15:18;1.30;;;1.30;;
57726;SDS011;43568;43.180;-0.028;2022-10-16T10:17:53;1.83;;;1.73;;
57726;SDS011;43568;43.180;-0.028;2022-10-16T10:20:35;1.10;;;1.10;;
57726;SDS011;43568;43.180;-0.028;2022-10-16T10:23:20;1.05;;;1.05;;
57726;SDS011;43568;43.180;-0.028;2022-10-16T10:28:26;1.42;;;1.42;;
57726;SDS011;43568;43.180;-0.028;2022-10-16T10:45:54;1.20;;;1.20;;
57726;SDS011;43568;43.180;-0.028;2022-10-16T10:55:40;1.20;;;1.20;;
57726;SDS011;43568;43.180;-0.028;2022-10-16T11:03:08;1.10;;;1.10;;
57726;SDS011;43568;43.180;-0.028;2022-10-16T11:08:13;1.10;;;1.10;;
57726;SDS011;43568;43.180;-0.028;2022-10-16T11:10:46;1.10;;;1.10;;
57726;SDS011;43568;43.180;-0.028;2022-10-16T11:15:40;1.20;;;1.20;;
57726;SDS011;43568;43.180;-0.028;2022-10-16T11:23:28;1.05;;;1.05;;
57726;SDS011;43568;43.180;-0.028;2022-10-16T11:26:05;1.10;;;1.10;;
57726;SDS011;43568;43.180;-0.028;2022-10-16T11:28:37;1.23;;;1.23;;
57726;SDS011;43568;43.180;-0.028;2022-10-16T11:31:10;1.00;;;1.00;;
57726;SDS011;43568;43.180;-0.028;2022-10-16T11:36:19;1.17;;;1.17;;
57726;SDS011;43568;43.180;-0.028;2022-10-16T11:38:58;1.00;;;1.00;;
57726;SDS011;43568;43.180;-0.028;2022-10-16T11:41:32;1.00;;;1.00;;
57726;SDS011;43568;43.180;-0.028;2022-10-16T11:46:28;1.27;;;1.27;;
57726;SDS011;43568;43.180;-0.028;2022-10-16T11:49:38;1.38;;;1.38;;
57726;SDS011;43568;43.180;-0.028;2022-10-16T11:51:46;1.13;;;1.13;;
57726;SDS011;43568;43.180;-0.028;2022-10-16T11:56:43;1.08;;;1.08;;
57726;SDS011;43568;43.180;-0.028;2022-10-16T11:59:23;0.93;;;0.93;;
57726;SDS011;43568;43.180;-0.028;2022-10-16T12:01:52;1.52;;;1.45;;
57726;SDS011;43568;43.180;-0.028;2022-10-16T12:04:26;1.30;;;1.20;;
57726;SDS011;43568;43.180;-0.028;2022-10-16T12:07:07;1.00;;;1.00;;
57726;SDS011;43568;43.180;-0.028;2022-10-16T12:09:37;0.90;;;0.90;;
57726;SDS011;43568;43.180;-0.028;2022-10-16T12:12:03;1.10;;;1.10;;
57726;SDS011;43568;43.180;-0.028;2022-10-16T12:19:22;1.10;;;1.10;;
57726;SDS011;43568;43.180;-0.028;2022-10-16T12:21:48;1.00;;;1.00;;
57726;SDS011;43568;43.180;-0.028;2022-10-16T12:26:59;1.00;;;1.00;;
57726;SDS011;43568;43.180;-0.028;2022-10-16T12:29:39;1.10;;;1.10;;
57726;SDS011;43568;43.180;-0.028;2022-10-16T12:35:16;0.93;;;0.93;;
57726;SDS011;43568;43.180;-0.028;2022-10-16T12:37:43;1.10;;;1.10;;
57726;SDS011;43568;43.180;-0.028;2022-10-16T12:40:29;1.07;;;1.07;;
57726;SDS011;43568;43.180;-0.028;2022-10-16T12:42:55;1.00;;;1.00;;
57726;SDS011;43568;43.180;-0.028;2022-10-16T12:45:32;0.95;;;0.95;;
57726;SDS011;43568;43.180;-0.028;2022-10-16T12:47:59;2.78;;;1.55;;
57726;SDS011;43568;43.180;-0.028;2022-10-16T12:50:36;1.02;;;1.02;;
57726;SDS011;43568;43.180;-0.028;2022-10-16T12:53:03;1.00;;;1.00;;
57726;SDS011;43568;43.180;-0.028;2022-10-16T12:55:42;1.10;;;1.10;;
57726;SDS011;43568;43.180;-0.028;2022-10-16T12:58:17;0.90;;;0.90;;
57726;SDS011;43568;43.180;-0.028;2022-10-16T13:00:46;1.00;;;1.00;;
57726;SDS011;43568;43.180;-0.028;2022-10-16T13:13:13;0.80;;;0.80;;
57726;SDS011;43568;43.180;-0.028;2022-10-16T13:15:55;1.65;;;1.48;;
57726;SDS011;43568;43.180;-0.028;2022-10-16T13:21:00;1.10;;;1.10;;
57726;SDS011;43568;43.180;-0.028;2022-10-16T13:28:45;1.25;;;1.25;;
57726;SDS011;43568;43.180;-0.028;2022-10-16T13:31:13;1.00;;;1.00;;
57726;SDS011;43568;43.180;-0.028;2022-10-16T13:33:41;1.27;;;1.27;;
57726;SDS011;43568;43.180;-0.028;2022-10-16T13:39:06;1.10;;;1.10;;
57726;SDS011;43568;43.180;-0.028;2022-10-16T13:41:36;1.23;;;1.23;;
57726;SDS011;43568;43.180;-0.028;2022-10-16T13:44:02;1.00;;;1.00;;
57726;SDS011;43568;43.180;-0.028;2022-10-16T13:46:28;1.85;;;1.75;;
57726;SDS011;43568;43.180;-0.028;2022-10-16T13:51:28;0.90;;;0.90;;
57726;SDS011;43568;43.180;-0.028;2022-10-16T13:53:55;1.00;;;1.00;;
57726;SDS011;43568;43.180;-0.028;2022-10-16T13:56:22;1.13;;;1.13;;
57726;SDS011;43568;43.180;-0.028;2022-10-16T13:59:00;1.33;;;1.33;;
57726;SDS011;43568;43.180;-0.028;2022-10-16T14:01:31;0.98;;;0.98;;
57726;SDS011;43568;43.180;-0.028;2022-10-16T14:04:02;1.10;;;1.10;;
57726;SDS011;43568;43.180;-0.028;2022-10-16T14:06:29;1.20;;;1.20;;
57726;SDS011;43568;43.180;-0.028;2022-10-16T14:08:57;1.27;;;1.20;;
57726;SDS011;43568;43.180;-0.028;2022-10-16T14:11:25;0.95;;;0.95;;
57726;SDS011;43568;43.180;-0.028;2022-10-16T14:13:51;0.90;;;0.90;;
57726;SDS011;43568;43.180;-0.028;2022-10-16T14:16:19;1.00;;;1.00;;
57726;SDS011;43568;43.180;-0.028;2022-10-16T14:18:46;0.90;;;0.90;;
57726;SDS011;43568;43.180;-0.028;2022-10-16T14:21:12;0.90;;;0.90;;
57726;SDS011;43568;43.180;-0.028;2022-10-16T14:23:39;1.42;;;1.38;;
57726;SDS011;43568;43.180;-0.028;2022-10-16T14:26:11;1.10;;;1.10;;
57726;SDS011;43568;43.180;-0.028;2022-10-16T14:28:41;1.10;;;1.10;;
57726;SDS011;43568;43.180;-0.028;2022-10-16T14:33:52;0.90;;;0.90;;
57726;SDS011;43568;43.180;-0.028;2022-10-16T14:36:18;1.10;;;1.10;;
57726;SDS011;43568;43.180;-0.028;2022-10-16T14:38:51;1.10;;;1.10;;
57726;SDS011;43568;43.180;-0.028;2022-10-16T14:41:21;0.95;;;0.95;;
57726;SDS011;43568;43.180;-0.028;2022-10-16T14:43:50;1.48;;;1.38;;
57726;SDS011;43568;43.180;-0.028;2022-10-16T14:46:20;1.40;;;1.40;;
57726;SDS011;43568;43.180;-0.028;2022-10-16T14:48:51;1.10;;;1.10;;
57726;SDS011;43568;43.180;-0.028;2022-10-16T14:51:19;1.05;;;1.05;;
57726;SDS011;43568;43.180;-0.028;2022-10-16T14:53:46;1.10;;;1.10;;
57726;SDS011;43568;43.180;-0.028;2022-10-16T14:56:22;1.10;;;1.10;;
57726;SDS011;43568;43.180;-0.028;2022-10-16T14:58:49;1.00;;;1.00;;
57726;SDS011;43568;43.180;-0.028;2022-10-16T15:01:16;2.10;;;2.00;;
57726;SDS011;43568;43.180;-0.028;2022-10-16T15:03:42;1.20;;;1.10;;
57726;SDS011;43568;43.180;-0.028;2022-10-16T15:06:12;1.00;;;1.00;;
57726;SDS011;43568;43.180;-0.028;2022-10-16T15:08:38;1.40;;;1.00;;
57726;SDS011;43568;43.180;-0.028;2022-10-16T15:11:04;1.20;;;1.20;;
57726;SDS011;43568;43.180;-0.028;2022-10-16T15:13:31;1.40;;;1.40;;
57726;SDS011;43568;43.180;-0.028;2022-10-16T15:15:57;0.97;;;0.97;;
57726;SDS011;43568;43.180;-0.028;2022-10-16T15:18:23;0.90;;;0.90;;
57726;SDS011;43568;43.180;-0.028;2022-10-16T15:20:50;1.17;;;1.17;;
57726;SDS011;43568;43.180;-0.028;2022-10-16T15:23:16;1.08;;;1.08;;
57726;SDS011;43568;43.180;-0.028;2022-10-16T15:28:09;1.10;;;1.10;;
57726;SDS011;43568;43.180;-0.028;2022-10-16T15:30:36;1.00;;;1.00;;
57726;SDS011;43568;43.180;-0.028;2022-10-16T15:33:02;1.10;;;1.10;;
57726;SDS011;43568;43.180;-0.028;2022-10-16T15:35:29;1.20;;;1.20;;
57726;SDS011;43568;43.180;-0.028;2022-10-16T15:37:55;1.40;;;1.40;;
57726;SDS011;43568;43.180;-0.028;2022-10-16T15:40:21;1.00;;;1.00;;
57726;SDS011;43568;43.180;-0.028;2022-10-16T15:42:48;1.13;;;1.13;;
57726;SDS011;43568;43.180;-0.028;2022-10-16T15:45:14;3.80;;;1.58;;
57726;SDS011;43568;43.180;-0.028;2022-10-16T15:47:41;1.00;;;1.00;;
57726;SDS011;43568;43.180;-0.028;2022-10-16T15:50:08;1.00;;;1.00;;
57726;SDS011;43568;43.180;-0.028;2022-10-16T15:52:35;1.25;;;1.25;;
57726;SDS011;43568;43.180;-0.028;2022-10-16T15:55:01;1.10;;;1.10;;
57726;SDS011;43568;43.180;-0.028;2022-10-16T15:57:28;1.20;;;1.20;;
57726;SDS011;43568;43.180;-0.028;2022-10-16T15:59:54;1.10;;;1.10;;
57726;SDS011;43568;43.180;-0.028;2022-10-16T16:02:20;1.25;;;1.25;;
57726;SDS011;43568;43.180;-0.028;2022-10-16T16:04:47;1.58;;;1.52;;
57726;SDS011;43568;43.180;-0.028;2022-10-16T16:07:13;1.10;;;1.10;;
57726;SDS011;43568;43.180;-0.028;2022-10-16T16:09:39;1.20;;;1.20;;
57726;SDS011;43568;43.180;-0.028;2022-10-16T16:12:05;1.30;;;1.30;;
57726;SDS011;43568;43.180;-0.028;2022-10-16T16:14:31;1.20;;;1.20;;
57726;SDS011;43568;43.180;-0.028;2022-10-16T16:16:57;1.30;;;1.30;;
57726;SDS011;43568;43.180;-0.028;2022-10-16T16:19:23;1.10;;;1.10;;
57726;SDS011;43568;43.180;-0.028;2022-10-16T16:21:49;1.42;;;1.33;;
57726;SDS011;43568;43.180;-0.028;2022-10-16T16:24:16;1.30;;;1.30;;
57726;SDS011;43568;43.180;-0.028;2022-10-16T16:26:42;1.10;;;1.10;;
57726;SDS011;43568;43.180;-0.028;2022-10-16T16:29:12;1.30;;;1.30;;
57726;SDS011;43568;43.180;-0.028;2022-10-16T16:31:38;1.50;;;1.50;;
57726;SDS011;43568;43.180;-0.028;2022-10-16T16:34:04;1.17;;;1.17;;
57726;SDS011;43568;43.180;-0.028;2022-10-16T16:36:31;1.08;;;1.08;;
57726;SDS011;43568;43.180;-0.028;2022-10-16T16:38:57;1.30;;;1.30;;
57726;SDS011;43568;43.180;-0.028;2022-10-16T16:41:27;1.20;;;1.20;;
57726;SDS011;43568;43.180;-0.028;2022-10-16T16:43:54;1.40;;;1.40;;